Time;durP1;ratioP1;P1;durP2;ratioP2;P2;SDS_P1;SDS_P2;PMS_P1;PMS_P2;Temp;Humidity;BMP_temperature;BMP_pressure;BME280_temperature;BME280_humidity;BME280_pressure;Samples;Min_cycle;Max_cycle;Signal;HPM_P1;HPM_P2
2023/09/06 00:02:29;;;;;;;11.65;7.70;;;12.70;99.90;;;;;;6227422;23;20344;-90
2023/09/06 00:05:16;;;;;;;10.15;8.23;;;12.50;99.90;;;;;;6235016;23;20034;-88
2023/09/06 00:08:04;;;;;;;11.75;8.65;;;12.50;99.90;;;;;;6237501;23;20012;-90
2023/09/06 00:10:52;;;;;;;10.85;8.45;;;12.40;99.90;;;;;;6235832;23;20036;-92
2023/09/06 00:13:40;;;;;;;12.68;8.48;;;12.30;99.90;;;;;;6228122;23;20143;-92
2023/09/06 00:21:45;;;;;;;;;;;;;;;;;;;;;
2023/09/06 00:29:38;;;;;;;;;;;;;;;;;;;;;
2023/09/06 00:33:06;;;;;;;;;;;;;;;;;;;;;
2023/09/06 01:27:05;;;;;;;14.95;9.77;;;11.70;99.90;;;;;;5367180;22;19149778;-92
2023/09/06 01:30:26;;;;;;;;;;;;;;;;;;;;;
2023/09/06 01:33:50;;;;;;;11.90;9.48;;;11.60;99.90;;;;;;6175694;23;20029;-91
2023/09/06 01:37:28;;;;;;;;;;;;;;;;;;;;;
2023/09/06 01:40:36;;;;;;;;;;;;;;;;;;;;;
2023/09/06 01:44:45;;;;;;;;;;;;;;;;;;;;;
2023/09/06 01:48:50;;;;;;;;;;;;;;;;;;;;;
2023/09/06 01:52:25;;;;;;;12.70;9.98;;;11.30;99.90;;;;;;5968379;24;20089;-95
2023/09/06 01:56:14;;;;;;;;;;;;;;;;;;;;;
2023/09/06 02:08:11;;;;;;;;;;;;;;;;;;;;;
2023/09/06 02:11:53;;;;;;;15.55;10.10;;;11.40;99.90;;;;;;5811067;24;20051;-88
2023/09/06 02:34:50;;;;;;;;;;;;;;;;;;;;;
2023/09/06 02:38:13;;;;;;;14.57;9.82;;;11.00;99.90;;;;;;6111411;23;20052;-93
2023/09/06 02:53:32;;;;;;;;;;;;;;;;;;;;;
2023/09/06 03:01:07;;;;;;;;;;;;;;;;;;;;;
2023/09/06 03:04:20;;;;;;;;;;;;;;;;;;;;;
2023/09/06 03:24:13;;;;;;;20.77;12.30;;;10.50;99.90;;;;;;6009621;23;20076;-92
2023/09/06 03:27:31;;;;;;;15.85;12.20;;;10.50;99.90;;;;;;6233683;23;20111;-93
2023/09/06 03:47:47;;;;;;;18.85;12.88;;;10.70;99.90;;;;;;6008560;23;20022;-90
2023/09/06 04:00:12;;;;;;;;;;;;;;;;;;;;;
2023/09/06 04:16:35;;;;;;;;;;;;;;;;;;;;;
2023/09/06 04:20:35;;;;;;;;;;;;;;;;;;;;;
2023/09/06 09:17:14;;;;;;;3.75;2.78;;;29.40;78.30;;;;;;6168919;23;20513;-91
2023/09/06 10:20:11;;;;;;;;;;;;;;;;;;;;;
2023/09/06 10:28:32;;;;;;;;;;;;;;;;;;;;;
2023/09/06 10:32:11;;;;;;;3.47;2.80;;;32.90;1.00;;;;;;5883946;24;20118;-95
2023/09/06 10:48:10;;;;;;;3.42;2.97;;;32.90;1.00;;;;;;5864581;24;20010;-92
2023/09/06 10:51:14;;;;;;;4.28;3.63;;;32.90;1.00;;;;;;5844879;24;20072;-94
2023/09/06 10:54:03;;;;;;;8.80;3.72;;;32.70;1.00;;;;;;5882226;24;20036;-92
2023/09/06 10:57:08;;;;;;;8.38;4.03;;;32.70;1.00;;;;;;5883188;24;20017;-92
2023/09/06 11:00:34;;;;;;;7.78;3.20;;;31.90;1.00;;;;;;5888125;24;20025;-93
2023/09/06 11:08:29;;;;;;;4.22;2.95;;;32.70;1.00;;;;;;6021944;23;20058;-91
2023/09/06 11:11:18;;;;;;;5.13;3.40;;;33.40;1.00;;;;;;6018593;23;20130;-90
2023/09/06 11:18:22;;;;;;;5.40;3.22;;;33.00;1.00;;;;;;6050258;23;20082;-92
2023/09/06 11:21:31;;;;;;;6.47;3.78;;;33.20;1.00;;;;;;6051792;23;20096;-92
2023/09/06 11:28:40;;;;;;;10.75;4.05;;;32.90;1.00;;;;;;6162291;23;20068;-91
2023/09/06 11:32:16;;;;;;;8.77;3.83;;;33.00;1.00;;;;;;6200905;22;20092;-93
2023/09/06 11:35:51;;;;;;;;;;;;;;;;;;;;;
2023/09/06 11:43:33;;;;;;;11.57;4.65;;;32.40;1.00;;;;;;6079270;23;20019;-92
2023/09/06 11:46:24;;;;;;;5.07;3.70;;;32.60;1.00;;;;;;6173421;23;20324;-90
2023/09/06 11:49:56;;;;;;;5.63;3.80;;;32.30;1.00;;;;;;6200456;23;20055;-89
2023/09/06 11:57:46;;;;;;;7.72;5.03;;;33.00;1.00;;;;;;5991218;24;20180;-90
2023/09/06 12:13:34;;;;;;;4.25;3.38;;;33.10;1.00;;;;;;5914860;24;20025;-93
2023/09/06 12:20:36;;;;;;;5.13;3.30;;;33.50;1.00;;;;;;5939369;24;19895;-93
2023/09/06 12:24:38;;;;;;;4.90;3.40;;;33.20;1.00;;;;;;5820392;24;20031;-93
2023/09/06 12:39:42;;;;;;;4.65;3.53;;;35.00;1.00;;;;;;5935742;24;20054;-93
2023/09/06 12:42:28;;;;;;;4.78;3.10;;;35.50;1.00;;;;;;5918468;24;20020;-90
2023/09/06 12:49:26;;;;;;;3.72;3.15;;;34.50;1.00;;;;;;5990369;24;20004;-94
2023/09/06 12:56:53;;;;;;;9.85;3.08;;;34.90;1.00;;;;;;5969381;24;20080;-89
2023/09/06 13:00:40;;;;;;;4.70;3.20;;;34.80;1.00;;;;;;5991962;24;20111;-93
2023/09/06 13:04:08;;;;;;;4.15;3.08;;;34.20;1.00;;;;;;5860497;24;20023;-92
2023/09/06 13:06:57;;;;;;;;;;;35.20;1.00;;;;;;5842546;24;20093;-93
2023/09/06 13:13:36;;;;;;;7.95;3.03;;;34.90;1.00;;;;;;5839713;24;20014;-93
2023/09/06 13:16:23;;;;;;;3.88;3.08;;;34.70;1.00;;;;;;5836148;24;20026;-93
2023/09/06 13:19:33;;;;;;;7.28;3.15;;;34.30;1.00;;;;;;5867677;24;20023;-92
2023/09/06 13:22:21;;;;;;;4.35;3.38;;;34.40;1.00;;;;;;5964804;24;20417;-92
2023/09/06 13:25:14;;;;;;;3.83;3.10;;;34.80;1.00;;;;;;5965876;24;20025;-93
2023/09/06 13:28:02;;;;;;;5.32;2.80;;;34.60;1.00;;;;;;5969554;24;20039;-94
2023/09/06 13:30:50;;;;;;;4.97;3.17;;;34.50;1.00;;;;;;5973844;24;20035;-91
2023/09/06 13:33:57;;;;;;;5.03;3.38;;;35.00;1.00;;;;;;5962033;24;20041;-93
2023/09/06 13:36:46;;;;;;;4.00;3.00;;;34.40;1.00;;;;;;5969789;24;20028;-93
2023/09/06 13:39:34;;;;;;;3.83;3.17;;;33.90;1.00;;;;;;5972478;23;20024;-92
2023/09/06 13:42:23;;;;;;;4.82;2.97;;;34.30;1.00;;;;;;6057569;23;20037;-93
2023/09/06 13:45:12;;;;;;;3.33;2.72;;;34.50;1.00;;;;;;6082119;23;20486;-93
2023/09/06 13:48:05;;;;;;;7.47;3.50;;;34.40;1.00;;;;;;6061092;23;20037;-88
2023/09/06 13:50:58;;;;;;;3.40;2.72;;;34.20;1.00;;;;;;6078753;23;20033;-92
2023/09/06 13:53:46;;;;;;;3.80;3.17;;;33.50;1.00;;;;;;6081263;23;20093;-93
2023/09/06 13:56:36;;;;;;;7.60;3.58;;;33.90;1.00;;;;;;6077849;23;20041;-92
2023/09/06 13:59:23;;;;;;;3.75;3.20;;;33.60;1.00;;;;;;6078565;23;20027;-93
2023/09/06 14:02:11;;;;;;;5.43;2.80;;;33.60;1.00;;;;;;6065258;23;20026;-93
2023/09/06 14:05:08;;;;;;;5.35;3.15;;;33.90;1.00;;;;;;6066971;23;20027;-91
2023/09/06 14:07:55;;;;;;;3.42;2.92;;;34.30;1.00;;;;;;6065784;23;20027;-92
2023/09/06 14:10:45;;;;;;;3.15;2.80;;;35.30;1.00;;;;;;6081387;23;20031;-92
2023/09/06 14:13:32;;;;;;;5.55;2.97;;;35.30;1.00;;;;;;6059857;23;20022;-91
2023/09/06 14:16:20;;;;;;;3.97;2.85;;;35.20;1.00;;;;;;6062223;23;20063;-93
2023/09/06 14:19:20;;;;;;;5.90;2.78;;;35.10;1.00;;;;;;6082212;23;20041;-92
2023/09/06 14:22:51;;;;;;;4.03;2.80;;;35.00;1.00;;;;;;6016723;23;20033;-94
2023/09/06 14:26:01;;;;;;;4.47;3.33;;;34.10;1.00;;;;;;6060310;23;20026;-94
2023/09/06 14:28:55;;;;;;;4.40;2.70;;;32.90;1.00;;;;;;6077681;23;20064;-92
2023/09/06 14:31:57;;;;;;;3.33;2.80;;;33.10;1.00;;;;;;6066886;23;20055;-92
2023/09/06 14:35:21;;;;;;;6.78;3.05;;;32.70;1.00;;;;;;6059126;23;20292;-93
2023/09/06 14:38:28;;;;;;;6.20;3.03;;;33.10;1.00;;;;;;6017393;23;20027;-92
2023/09/06 14:41:16;;;;;;;4.90;3.40;;;32.60;1.00;;;;;;6013696;23;20047;-93
2023/09/06 14:44:12;;;;;;;3.40;2.75;;;32.20;1.00;;;;;;6014223;23;20031;-93
2023/09/06 14:48:20;;;;;;;3.38;2.97;;;32.40;1.00;;;;;;6019652;23;20080;-91
2023/09/06 14:51:36;;;;;;;4.90;2.83;;;32.40;1.00;;;;;;5895492;24;20362;-91
2023/09/06 14:54:26;;;;;;;5.18;2.95;;;32.50;1.00;;;;;;6011920;23;20107;-88
2023/09/06 14:57:45;;;;;;;;;;;;;;;;;;;;;
2023/09/06 15:01:07;;;;;;;5.15;2.83;;;31.80;1.00;;;;;;5989348;24;20031;-91
2023/09/06 15:04:24;;;;;;;4.28;3.00;;;32.30;1.00;;;;;;5988810;24;20035;-89
2023/09/06 15:15:39;;;;;;;4.55;2.65;;;31.40;1.00;;;;;;5962277;23;20034;-92
2023/09/06 15:19:21;;;;;;;6.07;3.10;;;31.40;1.00;;;;;;5862992;24;20060;-93
2023/09/06 15:26:49;;;;;;;3.42;3.05;;;31.50;1.00;;;;;;5828003;24;20039;-92
2023/09/06 15:34:33;;;;;;;4.78;2.67;;;32.00;1.00;;;;;;5813482;24;20030;-90
2023/09/06 15:57:15;;;;;;;5.25;2.47;;;30.70;1.00;;;;;;6236437;23;20024;-91
2023/09/06 16:00:54;;;;;;;;;;;;;;;;;;;;;
2023/09/06 16:08:23;;;;;;;4.50;2.53;;;30.10;1.00;;;;;;6139146;23;20033;-92
2023/09/06 16:11:54;;;;;;;;;;;;;;;;;;;;;
2023/09/06 16:33:32;;;;;;;;;;;;;;;;;;;;;
2023/09/06 16:36:44;;;;;;;4.25;2.40;;;27.90;1.00;;;;;;6099288;23;20033;-90
2023/09/06 16:39:34;;;;;;;4.70;2.50;;;26.70;1.00;;;;;;6103183;23;20031;-91
2023/09/06 16:42:21;;;;;;;4.03;2.42;;;26.00;1.00;;;;;;6183802;23;20130;-90
2023/09/06 16:45:09;;;;;;;6.43;2.55;;;25.60;1.00;;;;;;6261023;22;20019;-94
2023/09/06 16:47:58;;;;;;;3.45;2.15;;;25.30;1.00;;;;;;6253315;23;20020;-92
2023/09/06 16:50:48;;;;;;;4.13;2.28;;;25.10;1.00;;;;;;6256156;23;20028;-90
2023/09/06 16:53:35;;;;;;;2.63;2.22;;;25.00;1.00;;;;;;6265058;22;20034;-94
2023/09/06 16:56:25;;;;;;;4.20;2.55;;;24.80;1.00;;;;;;6258793;23;20399;-91
2023/09/06 16:59:14;;;;;;;3.95;2.30;;;24.70;1.00;;;;;;6258676;23;20032;-92
2023/09/06 17:02:04;;;;;;;6.53;2.83;;;24.60;1.00;;;;;;6258627;23;20035;-92
2023/09/06 17:04:52;;;;;;;3.67;2.17;;;24.50;1.00;;;;;;6263080;23;20056;-90
2023/09/06 17:07:41;;;;;;;4.00;2.25;;;24.40;1.00;;;;;;6260944;23;20024;-90
2023/09/06 17:10:37;;;;;;;2.63;1.98;;;24.30;1.00;;;;;;6260066;23;20035;-91
2023/09/06 17:13:25;;;;;;;6.07;2.45;;;24.20;1.00;;;;;;6252876;23;20044;-93
2023/09/06 17:16:14;;;;;;;4.88;2.60;;;24.00;1.00;;;;;;6249526;23;20048;-93
2023/09/06 17:19:06;;;;;;;4.05;1.83;;;23.90;1.00;;;;;;6255496;23;20039;-90
2023/09/06 17:21:56;;;;;;;5.85;2.42;;;23.80;1.00;;;;;;6255692;23;20123;-93
2023/09/06 17:24:47;;;;;;;4.07;2.28;;;23.60;1.00;;;;;;6249432;23;20024;-93
2023/09/06 17:27:35;;;;;;;5.50;2.15;;;23.50;1.00;;;;;;6253352;23;20020;-93
2023/09/06 17:30:24;;;;;;;3.22;2.28;;;23.40;1.00;;;;;;6248744;23;20024;-92
2023/09/06 17:33:14;;;;;;;4.10;2.40;;;23.30;1.00;;;;;;6246389;23;20028;-90
2023/09/06 17:36:07;;;;;;;3.67;2.33;;;23.20;1.00;;;;;;6256107;22;20082;-90
2023/09/06 17:38:57;;;;;;;3.65;2.40;;;23.00;1.00;;;;;;6255999;23;20043;-90
2023/09/06 17:41:44;;;;;;;3.70;2.28;;;22.90;1.00;;;;;;6255209;23;20035;-91
2023/09/06 17:44:35;;;;;;;9.25;2.78;;;22.80;1.00;;;;;;6254607;23;20016;-90
2023/09/06 17:47:25;;;;;;;3.65;2.67;;;22.60;1.00;;;;;;6256693;23;20035;-90
2023/09/06 17:50:17;;;;;;;6.50;2.40;;;22.50;1.00;;;;;;6259494;23;20035;-91
2023/09/06 17:53:09;;;;;;;3.13;2.30;;;22.40;1.00;;;;;;6256048;23;20038;-92
2023/09/06 17:56:07;;;;;;;4.78;2.72;;;22.30;1.00;;;;;;6247818;23;20047;-91
2023/09/06 17:58:56;;;;;;;4.93;2.60;;;22.10;1.00;;;;;;6250077;23;20074;-91
2023/09/06 18:01:45;;;;;;;3.95;2.70;;;22.00;1.00;;;;;;6250367;23;20020;-93
2023/09/06 18:04:35;;;;;;;5.97;3.03;;;21.90;1.00;;;;;;6250506;23;20031;-91
2023/09/06 18:07:23;;;;;;;4.07;2.40;;;21.70;1.00;;;;;;6248673;23;20024;-93
2023/09/06 18:10:10;;;;;;;3.28;2.47;;;21.60;1.00;;;;;;6247260;23;20024;-93
2023/09/06 18:13:00;;;;;;;8.23;3.00;;;21.50;1.00;;;;;;6255539;23;20032;-90
2023/09/06 18:15:50;;;;;;;3.28;2.53;;;21.40;1.00;;;;;;6263401;23;20028;-92
2023/09/06 18:18:37;;;;;;;3.13;2.53;;;21.20;1.00;;;;;;6257935;22;20421;-93
2023/09/06 18:21:28;;;;;;;6.40;2.53;;;21.10;1.00;;;;;;6248400;23;20431;-92
2023/09/06 18:24:15;;;;;;;7.32;2.33;;;21.00;1.00;;;;;;6250092;23;20078;-92
2023/09/06 18:27:03;;;;;;;5.75;2.95;;;20.90;1.00;;;;;;6251182;23;20069;-90
2023/09/06 18:29:57;;;;;;;4.45;2.65;;;20.80;1.00;;;;;;6248270;23;20024;-93
2023/09/06 18:32:46;;;;;;;5.88;2.40;;;20.70;1.00;;;;;;6249433;23;20035;-92
2023/09/06 18:35:38;;;;;;;5.00;2.35;;;20.70;1.00;;;;;;6247046;23;20024;-92
2023/09/06 18:38:33;;;;;;;6.93;2.70;;;20.60;1.00;;;;;;6247399;23;20408;-94
2023/09/06 18:41:21;;;;;;;7.97;2.55;;;20.60;1.00;;;;;;6250560;23;20024;-93
2023/09/06 18:44:08;;;;;;;3.75;2.28;;;20.50;1.00;;;;;;6251227;23;20027;-92
2023/09/06 18:46:55;;;;;;;6.22;2.30;;;20.40;1.00;;;;;;6247841;23;20023;-94
2023/09/06 18:49:45;;;;;;;9.60;2.95;;;20.20;1.00;;;;;;6246800;23;20028;-93
2023/09/06 18:52:41;;;;;;;4.10;2.35;;;20.10;1.00;;;;;;6250045;23;20051;-92
2023/09/06 18:55:29;;;;;;;5.70;3.22;;;19.90;1.00;;;;;;6246111;23;20038;-92
2023/09/06 18:58:18;;;;;;;6.40;2.72;;;19.70;1.00;;;;;;6247098;23;20052;-94
2023/09/06 19:01:13;;;;;;;3.50;2.80;;;19.50;1.00;;;;;;6247317;23;20024;-92
2023/09/06 19:04:01;;;;;;;5.72;2.60;;;19.50;1.50;;;;;;6247467;23;20024;-91
2023/09/06 19:06:50;;;;;;;3.15;2.50;;;19.50;1.80;;;;;;6246543;23;20020;-93
2023/09/06 19:09:38;;;;;;;5.60;2.85;;;19.50;6.50;;;;;;6247388;23;20024;-92
2023/09/06 19:17:07;;;;;;;;;;;;;;;;;;;;;
2023/09/06 19:25:29;;;;;;;;;;;;;;;;;;;;;
2023/09/06 19:29:44;;;;;;;;;;;;;;;;;;;;;
2023/09/06 19:33:28;;;;;;;5.53;3.53;;;18.80;52.50;;;;;;6011424;23;20031;-92
2023/09/06 19:37:07;;;;;;;;;;;;;;;;;;;;;
2023/09/06 19:41:01;;;;;;;;;;;;;;;;;;;;;
2023/09/06 19:47:47;;;;;;;5.63;4.32;;;17.80;99.90;;;;;;5929741;24;20037;-93
2023/09/06 19:51:05;;;;;;;6.93;3.67;;;17.60;99.90;;;;;;5934358;23;20031;-89
2023/09/06 19:54:18;;;;;;;7.45;4.13;;;17.40;99.90;;;;;;6111272;23;20026;-92
2023/09/06 19:57:15;;;;;;;8.60;4.75;;;17.20;99.90;;;;;;6161348;23;20405;-91
2023/09/06 20:00:27;;;;;;;8.30;5.45;;;17.10;99.90;;;;;;6161674;23;20030;-93
2023/09/06 20:03:33;;;;;;;;;;;;;;;;;;;;;
2023/09/06 20:07:01;;;;;;;;;;;;;;;;;;;;;
2023/09/06 20:10:54;;;;;;;;;;;;;;;;;;;;;
2023/09/06 20:14:10;;;;;;;5.18;3.97;;;16.60;1.00;;;;;;6155680;23;20030;-91
2023/09/06 20:17:33;;;;;;;;;;;;;;;;;;;;;
2023/09/06 20:20:28;;;;;;;8.20;4.78;;;16.50;1.00;;;;;;6244658;23;20399;-92
2023/09/06 20:23:30;;;;;;;6.63;4.95;;;16.40;1.00;;;;;;6246209;23;20113;-92
2023/09/06 20:26:43;;;;;;;7.15;4.15;;;16.30;1.00;;;;;;6245517;23;20020;-92
2023/09/06 20:29:35;;;;;;;6.57;4.40;;;16.20;1.00;;;;;;6262853;23;20044;-93
2023/09/06 20:32:22;;;;;;;7.20;4.97;;;16.20;1.00;;;;;;6262019;23;20672;-90
2023/09/06 20:35:17;;;;;;;7.47;4.87;;;16.20;1.00;;;;;;6258652;23;20032;-90
2023/09/06 20:38:43;;;;;;;7.72;4.63;;;16.20;29.00;;;;;;6245757;23;20454;-92
2023/09/06 20:41:55;;;;;;;9.02;4.80;;;16.10;68.40;;;;;;6245644;23;20035;-94
2023/09/06 20:44:50;;;;;;;8.27;4.18;;;16.00;88.40;;;;;;6246607;23;20056;-94
2023/09/06 20:47:47;;;;;;;6.65;4.63;;;15.90;99.90;;;;;;6248852;22;20031;-93
2023/09/06 20:51:01;;;;;;;;;;;;;;;;;;;;;
2023/09/06 20:54:02;;;;;;;8.23;4.70;;;15.70;99.90;;;;;;6245939;23;20024;-91
2023/09/06 20:57:19;;;;;;;7.70;4.30;;;15.70;99.90;;;;;;6246794;23;20028;-92
2023/09/06 21:00:09;;;;;;;7.63;4.40;;;15.60;99.90;;;;;;6244874;23;20039;-92
2023/09/06 21:03:15;;;;;;;6.10;4.68;;;15.60;99.90;;;;;;6245740;23;20086;-93
2023/09/06 21:06:06;;;;;;;8.13;5.20;;;15.50;99.90;;;;;;6247064;23;20024;-92
2023/09/06 21:08:59;;;;;;;7.22;4.70;;;15.50;1.00;;;;;;6244682;23;20028;-91
2023/09/06 21:11:57;;;;;;;8.57;4.32;;;15.50;1.00;;;;;;6245306;23;20031;-93
2023/09/06 21:14:48;;;;;;;7.60;4.68;;;15.50;1.00;;;;;;6245726;23;20058;-92
2023/09/06 21:17:43;;;;;;;6.97;5.20;;;15.50;24.40;;;;;;6245447;23;20042;-91
2023/09/06 21:20:44;;;;;;;;;;;;;;;;;;;;;
2023/09/06 21:23:37;;;;;;;6.20;5.07;;;15.50;1.00;;;;;;6244826;23;20055;-89
2023/09/06 21:26:24;;;;;;;8.40;5.30;;;15.50;70.10;;;;;;6248853;23;20020;-90
2023/09/06 21:29:23;;;;;;;8.27;5.35;;;15.50;1.70;;;;;;6249521;23;20028;-92
2023/09/06 21:32:25;;;;;;;8.27;5.00;;;15.40;99.90;;;;;;6246908;23;20308;-92
2023/09/06 21:35:29;;;;;;;5.65;4.93;;;15.40;99.90;;;;;;6249206;23;20027;-91
2023/09/06 21:38:21;;;;;;;7.07;5.13;;;15.30;99.90;;;;;;6247353;23;20030;-92
2023/09/06 21:41:22;;;;;;;6.38;4.50;;;15.30;99.90;;;;;;6249370;23;20035;-91
2023/09/06 21:44:16;;;;;;;7.65;4.72;;;15.30;1.00;;;;;;6248438;23;20445;-92
2023/09/06 21:47:16;;;;;;;6.50;4.88;;;15.20;1.00;;;;;;6247206;23;20020;-91
2023/09/06 21:50:10;;;;;;;7.10;4.60;;;15.30;61.70;;;;;;6246523;23;20039;-92
2023/09/06 21:53:12;;;;;;;;;;;;;;;;;;;;;
2023/09/06 21:56:59;;;;;;;6.60;4.82;;;15.20;1.00;;;;;;6156448;23;20033;-93
2023/09/06 22:00:38;;;;;;;;;;;;;;;;;;;;;
2023/09/06 22:03:41;;;;;;;5.82;4.78;;;15.20;1.00;;;;;;6156576;23;20692;-92
2023/09/06 22:10:27;;;;;;;6.72;5.28;;;15.30;99.90;;;;;;6185965;23;20029;-91
2023/09/06 22:13:24;;;;;;;6.55;5.30;;;15.30;99.90;;;;;;6164993;23;20025;-92
2023/09/06 22:16:38;;;;;;;6.75;5.10;;;15.20;1.00;;;;;;6239349;22;20020;-92
2023/09/06 22:20:40;;;;;;;;;;;;;;;;;;;;;
2023/09/06 22:23:22;;;;;;;9.75;5.45;;;15.00;99.90;;;;;;6251270;22;20021;-91
2023/09/06 22:26:23;;;;;;;8.07;5.60;;;14.90;99.90;;;;;;6253737;23;20070;-92
2023/09/06 22:29:20;;;;;;;9.25;5.40;;;14.80;99.90;;;;;;6248826;23;20382;-91
2023/09/06 22:32:21;;;;;;;7.82;5.05;;;14.70;99.90;;;;;;6246039;23;20035;-92
2023/09/06 22:35:30;;;;;;;10.73;5.90;;;14.60;1.00;;;;;;6110317;23;20026;-91
2023/09/06 22:38:17;;;;;;;9.88;5.55;;;14.50;99.90;;;;;;6126917;23;20037;-90
2023/09/06 22:41:06;;;;;;;7.13;6.15;;;14.50;99.90;;;;;;6128289;23;20025;-92
2023/09/06 22:43:53;;;;;;;9.02;6.03;;;14.40;99.90;;;;;;6127159;23;20023;-93
2023/09/06 22:46:43;;;;;;;10.15;4.88;;;14.40;22.20;;;;;;6106423;23;20089;-92
2023/09/06 22:49:30;;;;;;;7.78;5.75;;;14.40;99.90;;;;;;6174722;22;20063;-91
2023/09/06 22:52:18;;;;;;;7.85;5.75;;;14.40;99.90;;;;;;6247848;23;20047;-91
2023/09/06 22:55:08;;;;;;;11.32;6.07;;;14.30;1.00;;;;;;6247757;23;20024;-94
2023/09/06 22:57:58;;;;;;;8.65;6.00;;;14.20;98.90;;;;;;6250134;23;20028;-92
2023/09/06 23:00:49;;;;;;;7.18;6.03;;;14.10;99.90;;;;;;6247265;23;20289;-92
2023/09/06 23:03:42;;;;;;;9.73;5.82;;;14.00;99.90;;;;;;6249602;23;20028;-92
2023/09/06 23:06:32;;;;;;;7.28;5.50;;;14.00;25.20;;;;;;6245937;23;20482;-93
2023/09/06 23:09:19;;;;;;;10.23;5.97;;;13.90;99.90;;;;;;6247552;23;20024;-92
2023/09/06 23:12:07;;;;;;;7.60;5.35;;;13.90;1.00;;;;;;6245997;23;20024;-92
2023/09/06 23:14:54;;;;;;;8.10;5.90;;;14.00;1.00;;;;;;6246981;23;20027;-90
2023/09/06 23:17:44;;;;;;;8.55;6.07;;;14.00;99.90;;;;;;6247187;23;20082;-94
2023/09/06 23:20:42;;;;;;;7.03;5.13;;;14.00;1.00;;;;;;6247652;23;20028;-92
2023/09/06 23:23:58;;;;;;;8.98;5.82;;;13.90;1.00;;;;;;6164939;22;20028;-91
2023/09/06 23:26:58;;;;;;;9.68;6.15;;;13.90;1.00;;;;;;6247848;23;20502;-91
2023/09/06 23:29:58;;;;;;;8.95;6.07;;;13.80;1.00;;;;;;6246137;23;20032;-93
2023/09/06 23:32:58;;;;;;;9.63;5.95;;;13.80;1.00;;;;;;6245065;23;20024;-93
2023/09/06 23:36:20;;;;;;;9.07;6.70;;;13.70;67.40;;;;;;6248616;23;20028;-93
2023/09/06 23:39:20;;;;;;;10.23;6.38;;;13.70;99.90;;;;;;6247355;23;20353;-93
2023/09/06 23:42:10;;;;;;;9.18;6.45;;;13.60;99.90;;;;;;6248614;23;20028;-92
2023/09/06 23:45:03;;;;;;;9.57;6.80;;;13.70;99.90;;;;;;6247905;23;20367;-92
2023/09/06 23:47:58;;;;;;;9.75;6.47;;;13.70;99.90;;;;;;6243280;23;20056;-91
2023/09/06 23:50:49;;;;;;;8.20;6.20;;;13.70;99.90;;;;;;6246513;23;20497;-92
2023/09/06 23:53:43;;;;;;;8.38;6.72;;;13.50;99.90;;;;;;6249508;22;20039;-91
2023/09/06 23:56:37;;;;;;;8.30;6.35;;;13.50;99.90;;;;;;6246820;23;20047;-94
2023/09/06 23:59:57;;;;;;;9.43;6.07;;;13.50;99.90;;;;;;6186780;22;20345;-93
